createdAt,value
2019-03-29T00:00:28.535Z,7.35
2019-03-29T00:03:17.881Z,10.58
2019-03-29T00:06:06.921Z,8.90
2019-03-29T00:08:56.287Z,8.80
2019-03-29T00:11:45.369Z,10.00
2019-03-29T00:14:34.724Z,7.70
2019-03-29T00:17:23.948Z,9.35
2019-03-29T00:20:13.575Z,8.80
2019-03-29T00:23:02.958Z,8.53
2019-03-29T00:25:51.994Z,9.00
2019-03-29T00:28:41.484Z,9.00
2019-03-29T00:31:30.543Z,10.60
2019-03-29T00:34:20.224Z,10.85
2019-03-29T00:37:09.424Z,12.30
2019-03-29T00:39:58.626Z,9.20
2019-03-29T00:42:47.484Z,10.15
2019-03-29T00:45:37.098Z,10.32
2019-03-29T00:48:25.541Z,9.88
2019-03-29T00:51:14.944Z,9.45
2019-03-29T00:54:04.071Z,9.55
2019-03-29T00:56:53.056Z,9.53
2019-03-29T00:59:42.371Z,9.43
2019-03-29T01:02:31.482Z,9.95
2019-03-29T01:05:20.993Z,9.35
2019-03-29T01:08:11.776Z,10.15
2019-03-29T01:11:00.635Z,10.80
2019-03-29T01:13:50.858Z,9.20
2019-03-29T01:16:40.469Z,8.68
2019-03-29T01:19:30.102Z,8.83
2019-03-29T01:22:19.637Z,9.00
2019-03-29T01:25:09.328Z,8.30
2019-03-29T01:27:58.422Z,9.25
2019-03-29T01:30:48.262Z,8.90
2019-03-29T01:33:37.650Z,8.35
2019-03-29T01:36:27.941Z,8.55
2019-03-29T01:39:17.008Z,8.93
2019-03-29T01:42:07.096Z,8.55
2019-03-29T01:44:56.266Z,8.00
2019-03-29T01:47:45.328Z,12.15
2019-03-29T01:50:35.012Z,9.83
2019-03-29T01:53:26.844Z,8.85
2019-03-29T01:56:15.582Z,10.08
2019-03-29T01:59:04.761Z,8.40
2019-03-29T02:01:54.952Z,9.58
2019-03-29T02:04:44.024Z,9.05
2019-03-29T02:07:33.282Z,8.85
2019-03-29T02:10:23.108Z,8.20
2019-03-29T02:13:12.364Z,10.05
2019-03-29T02:16:01.814Z,8.85
2019-03-29T02:18:51.496Z,8.30
2019-03-29T02:21:40.725Z,10.23
2019-03-29T02:24:29.927Z,9.45
2019-03-29T02:27:18.569Z,8.93
2019-03-29T02:30:11.341Z,11.63
2019-03-29T02:33:00.424Z,8.10
2019-03-29T02:35:49.466Z,8.15
2019-03-29T02:38:54.153Z,10.35
2019-03-29T02:41:29.643Z,8.13
2019-03-29T02:44:18.480Z,8.75
2019-03-29T02:47:08.075Z,9.40
2019-03-29T02:49:57.228Z,11.40
2019-03-29T02:52:46.212Z,10.35
2019-03-29T02:55:35.319Z,9.13
2019-03-29T02:58:24.649Z,10.08
2019-03-29T03:01:13.173Z,10.38
2019-03-29T03:04:02.981Z,11.78
2019-03-29T03:06:52.108Z,11.30
2019-03-29T03:09:41.223Z,10.55
2019-03-29T03:12:30.367Z,9.78
2019-03-29T03:15:19.746Z,11.00
2019-03-29T03:18:09.080Z,10.38
2019-03-29T03:21:00.138Z,11.45
2019-03-29T03:23:50.229Z,10.55
2019-03-29T03:26:38.903Z,10.50
2019-03-29T03:29:28.220Z,10.35
2019-03-29T03:32:17.632Z,11.90
2019-03-29T03:35:09.816Z,10.10
2019-03-29T03:37:59.022Z,11.20
2019-03-29T03:40:47.690Z,11.93
2019-03-29T03:43:37.059Z,14.85
2019-03-29T03:46:26.155Z,16.02
2019-03-29T03:49:15.685Z,19.12
2019-03-29T03:52:04.889Z,18.00
2019-03-29T03:54:54.130Z,18.40
2019-03-29T03:57:43.921Z,19.85
2019-03-29T04:00:52.008Z,20.40
2019-03-29T04:03:41.614Z,19.67
2019-03-29T04:06:30.942Z,20.60
2019-03-29T04:09:20.173Z,18.87
2019-03-29T04:12:08.676Z,20.32
2019-03-29T04:14:58.897Z,20.65
2019-03-29T04:17:48.057Z,20.48
2019-03-29T04:20:37.339Z,20.43
2019-03-29T04:23:27.001Z,21.07
2019-03-29T04:26:16.275Z,19.35
2019-03-29T04:29:05.743Z,20.08
2019-03-29T04:31:54.803Z,21.48
2019-03-29T04:34:43.341Z,19.35
2019-03-29T04:37:32.319Z,19.00
2019-03-29T04:40:21.385Z,20.17
2019-03-29T04:43:10.663Z,20.55
2019-03-29T04:45:59.534Z,20.10
2019-03-29T04:48:49.377Z,20.72
2019-03-29T04:51:38.443Z,20.80
2019-03-29T04:54:28.023Z,20.10
2019-03-29T04:57:16.888Z,19.50
2019-03-29T05:00:08.117Z,19.90
2019-03-29T05:02:56.621Z,19.57
2019-03-29T05:05:45.937Z,19.55
2019-03-29T05:08:34.523Z,20.00
2019-03-29T05:11:23.551Z,18.82
2019-03-29T05:14:12.730Z,19.15
2019-03-29T05:17:02.094Z,18.95
2019-03-29T05:19:50.797Z,18.00
2019-03-29T05:22:39.908Z,17.87
2019-03-29T05:25:29.376Z,17.23
2019-03-29T05:28:19.174Z,17.73
2019-03-29T05:31:08.699Z,17.60
2019-03-29T05:33:57.906Z,16.23
2019-03-29T05:36:46.962Z,16.07
2019-03-29T05:39:36.261Z,15.63
2019-03-29T05:42:25.130Z,15.90
2019-03-29T05:45:14.777Z,15.23
2019-03-29T05:48:04.557Z,15.15
2019-03-29T05:50:53.930Z,14.60
2019-03-29T05:53:43.408Z,14.45
2019-03-29T05:56:32.662Z,15.15
2019-03-29T05:59:22.249Z,13.75
2019-03-29T06:02:11.726Z,15.80
2019-03-29T06:05:00.585Z,14.20
2019-03-29T06:07:49.393Z,13.98
2019-03-29T06:10:49.022Z,14.90
2019-03-29T06:13:29.422Z,13.18
2019-03-29T06:16:18.283Z,14.03
2019-03-29T06:19:07.656Z,15.70
2019-03-29T06:21:56.938Z,15.32
2019-03-29T06:24:46.459Z,15.35
2019-03-29T06:27:36.175Z,14.30
2019-03-29T06:30:31.906Z,14.73
2019-03-29T06:33:21.178Z,15.15
2019-03-29T06:36:11.125Z,16.17
2019-03-29T06:39:00.642Z,16.50
2019-03-29T06:41:49.651Z,15.28
2019-03-29T06:44:38.572Z,16.95
2019-03-29T06:47:27.502Z,16.55
2019-03-29T06:50:16.581Z,16.20
2019-03-29T06:53:05.681Z,16.60
2019-03-29T06:55:55.218Z,17.35
2019-03-29T06:58:43.846Z,17.45
2019-03-29T07:01:33.251Z,17.10
2019-03-29T07:04:22.724Z,17.27
2019-03-29T07:07:11.455Z,18.50
2019-03-29T07:10:00.755Z,17.62
2019-03-29T07:12:49.928Z,17.52
2019-03-29T07:15:38.980Z,18.95
2019-03-29T07:18:28.631Z,17.60
2019-03-29T07:21:21.788Z,16.80
2019-03-29T07:24:07.601Z,19.90
2019-03-29T07:32:33.696Z,19.05
2019-03-29T07:49:25.701Z,20.80
2019-03-29T07:52:14.609Z,20.10
2019-03-29T07:55:04.705Z,19.27
2019-03-29T07:57:53.964Z,18.87
2019-03-29T08:00:43.605Z,19.40
2019-03-29T08:03:32.574Z,17.30
2019-03-29T08:06:21.627Z,17.70
2019-03-29T08:09:21.594Z,19.62
2019-03-29T08:12:02.115Z,18.10
2019-03-29T08:14:51.864Z,17.87
2019-03-29T08:17:41.099Z,17.92
2019-03-29T08:20:41.993Z,17.25
2019-03-29T08:23:20.838Z,17.67
2019-03-29T08:26:10.618Z,17.60
2019-03-29T08:28:59.983Z,19.20
2019-03-29T08:31:48.946Z,18.02
2019-03-29T08:34:38.065Z,17.85
2019-03-29T08:37:27.794Z,18.40
2019-03-29T08:40:16.723Z,17.37
2019-03-29T08:43:06.645Z,16.75
2019-03-29T08:45:57.596Z,18.15
2019-03-29T08:48:46.506Z,17.82
2019-03-29T08:51:35.160Z,17.62
2019-03-29T08:54:24.854Z,19.17
2019-03-29T08:57:13.478Z,17.90
2019-03-29T09:00:03.068Z,18.05
2019-03-29T09:02:52.289Z,18.95
2019-03-29T09:05:42.728Z,17.50
2019-03-29T09:08:32.008Z,16.65
2019-03-29T09:11:20.875Z,18.67
2019-03-29T09:14:10.386Z,19.07
2019-03-29T09:16:59.608Z,17.55
2019-03-29T09:19:49.082Z,17.87
2019-03-29T09:22:38.350Z,16.52
2019-03-29T09:25:27.621Z,18.17
2019-03-29T09:28:16.554Z,18.30
2019-03-29T09:31:06.223Z,17.98
2019-03-29T09:33:58.285Z,18.00
2019-03-29T09:36:45.541Z,20.17
2019-03-29T09:39:35.103Z,18.95
2019-03-29T09:42:29.521Z,19.55
2019-03-29T09:45:14.862Z,17.02
2019-03-29T09:48:03.717Z,18.40
2019-03-29T09:50:53.313Z,19.50
2019-03-29T09:53:42.752Z,20.77
2019-03-29T09:56:38.807Z,20.32
2019-03-29T09:59:23.399Z,20.43
2019-03-29T10:02:13.146Z,21.12
2019-03-29T10:05:02.060Z,21.45
2019-03-29T10:07:51.682Z,20.82
2019-03-29T10:10:40.962Z,21.30
2019-03-29T10:13:30.184Z,22.25
2019-03-29T10:16:19.417Z,22.35
2019-03-29T10:19:08.767Z,21.97
2019-03-29T10:21:57.721Z,23.65
2019-03-29T10:24:46.777Z,22.15
2019-03-29T10:27:35.857Z,23.22
2019-03-29T10:30:46.608Z,23.30
2019-03-29T10:33:33.967Z,22.65
2019-03-29T10:36:22.928Z,23.20
2019-03-29T10:39:15.405Z,23.45
2019-03-29T10:42:04.410Z,22.13
2019-03-29T10:44:53.997Z,22.10
2019-03-29T10:47:44.251Z,24.47
2019-03-29T10:50:34.598Z,23.92
2019-03-29T10:53:23.643Z,25.70
2019-03-29T10:56:12.712Z,24.47
2019-03-29T10:59:02.069Z,25.85
2019-03-29T11:01:51.560Z,24.00
2019-03-29T11:04:40.522Z,24.80
2019-03-29T11:07:29.767Z,25.10
2019-03-29T11:10:34.826Z,26.07
2019-03-29T11:13:23.855Z,24.55
2019-03-29T11:16:12.549Z,24.12
2019-03-29T11:19:01.531Z,24.05
2019-03-29T11:21:50.675Z,27.85
2019-03-29T11:24:39.329Z,26.00
2019-03-29T11:27:28.912Z,26.25
2019-03-29T11:30:18.008Z,25.52
2019-03-29T11:33:07.764Z,26.20
2019-03-29T11:35:56.277Z,26.17
2019-03-29T11:38:45.677Z,26.07
2019-03-29T11:41:34.775Z,27.27
2019-03-29T11:44:24.318Z,27.13
2019-03-29T11:47:12.857Z,27.00
2019-03-29T11:50:01.643Z,27.13
2019-03-29T11:52:50.989Z,30.15
2019-03-29T11:55:40.304Z,28.00
2019-03-29T11:58:29.170Z,27.60
2019-03-29T12:01:18.398Z,27.48
2019-03-29T12:04:07.953Z,26.40
2019-03-29T12:06:57.381Z,25.97
2019-03-29T12:09:46.618Z,29.20
2019-03-29T12:12:35.722Z,28.55
2019-03-29T12:15:25.156Z,29.00
2019-03-29T12:18:13.841Z,28.83
2019-03-29T12:21:03.084Z,27.35
2019-03-29T12:23:52.486Z,27.77
2019-03-29T12:26:41.822Z,28.23
2019-03-29T12:29:30.946Z,28.23
2019-03-29T12:32:20.574Z,27.55
2019-03-29T12:35:10.232Z,28.35
2019-03-29T12:38:00.032Z,27.62
2019-03-29T12:40:49.081Z,27.93
2019-03-29T12:43:37.747Z,29.20
2019-03-29T12:46:26.602Z,29.45
2019-03-29T12:49:16.390Z,30.48
2019-03-29T12:52:05.841Z,35.55
2019-03-29T12:54:55.138Z,30.05
2019-03-29T12:57:44.914Z,31.12
2019-03-29T13:00:34.258Z,29.75
2019-03-29T13:03:23.360Z,28.83
2019-03-29T13:06:12.512Z,26.95
2019-03-29T13:09:01.378Z,30.70
2019-03-29T13:11:50.752Z,30.90
2019-03-29T13:14:39.913Z,29.50
2019-03-29T13:17:29.010Z,29.20
2019-03-29T13:20:18.561Z,30.10
2019-03-29T13:23:07.650Z,29.63
2019-03-29T13:25:57.093Z,29.95
2019-03-29T13:28:45.967Z,32.42
2019-03-29T13:31:34.824Z,30.82
2019-03-29T13:34:23.772Z,31.75
2019-03-29T13:37:13.250Z,31.48
2019-03-29T13:40:02.934Z,31.82
2019-03-29T13:42:52.207Z,31.73
2019-03-29T13:45:41.646Z,30.50
2019-03-29T13:48:31.098Z,29.45
2019-03-29T13:51:19.999Z,28.42
2019-03-29T13:54:08.874Z,30.00
2019-03-29T13:56:58.136Z,30.55
2019-03-29T13:59:46.688Z,29.37
2019-03-29T14:02:36.064Z,29.40
2019-03-29T14:05:24.941Z,30.85
2019-03-29T14:08:14.190Z,30.62
2019-03-29T14:11:03.350Z,31.35
2019-03-29T14:13:52.829Z,29.67
2019-03-29T14:16:42.156Z,29.95
2019-03-29T14:19:31.592Z,31.07
2019-03-29T14:22:20.636Z,28.87
2019-03-29T14:25:10.319Z,28.10
2019-03-29T14:27:59.383Z,28.15
2019-03-29T14:30:48.638Z,29.60
2019-03-29T14:33:38.133Z,27.42
2019-03-29T14:36:27.882Z,28.60
2019-03-29T14:39:17.694Z,29.85
2019-03-29T14:42:06.646Z,26.70
2019-03-29T14:44:55.508Z,28.32
2019-03-29T14:47:44.574Z,28.05
2019-03-29T14:50:34.153Z,27.77
2019-03-29T14:53:23.072Z,26.85
2019-03-29T14:56:12.796Z,25.82
2019-03-29T14:59:01.831Z,26.50
2019-03-29T15:01:51.621Z,26.33
2019-03-29T15:04:40.435Z,27.05
2019-03-29T15:07:29.761Z,27.17
2019-03-29T15:10:29.350Z,26.42
2019-03-29T15:13:18.561Z,28.00
2019-03-29T15:16:07.528Z,27.82
2019-03-29T15:18:57.200Z,27.85
2019-03-29T15:21:46.129Z,27.48
2019-03-29T15:24:35.328Z,26.55
2019-03-29T15:27:24.835Z,26.75
2019-03-29T15:30:14.698Z,27.52
2019-03-29T15:33:03.343Z,26.23
2019-03-29T15:35:52.212Z,26.12
2019-03-29T15:38:41.364Z,25.90
2019-03-29T15:41:30.489Z,28.45
2019-03-29T15:44:19.800Z,27.52
2019-03-29T15:47:08.727Z,26.60
2019-03-29T15:49:57.926Z,25.65
2019-03-29T15:52:47.270Z,29.27
2019-03-29T15:55:36.883Z,25.92
2019-03-29T15:58:26.079Z,26.55
2019-03-29T16:01:15.414Z,28.32
2019-03-29T16:04:04.707Z,26.97
2019-03-29T16:06:53.857Z,27.45
2019-03-29T16:09:42.906Z,28.42
2019-03-29T16:12:32.186Z,27.32
2019-03-29T16:15:33.942Z,26.20
2019-03-29T16:18:11.890Z,26.17
2019-03-29T16:21:01.343Z,26.65
2019-03-29T16:23:50.688Z,27.27
2019-03-29T16:26:40.381Z,27.90
2019-03-29T16:29:29.618Z,25.62
2019-03-29T16:32:18.510Z,26.48
2019-03-29T16:35:08.733Z,26.10
2019-03-29T16:37:58.486Z,25.52
2019-03-29T16:40:47.593Z,26.77
2019-03-29T16:43:36.979Z,26.17
2019-03-29T16:46:26.289Z,25.77
2019-03-29T16:49:15.077Z,26.42
2019-03-29T16:52:04.339Z,26.42
2019-03-29T16:54:53.585Z,28.90
2019-03-29T16:57:43.064Z,27.58
2019-03-29T17:00:32.493Z,26.77
2019-03-29T17:03:21.714Z,27.20
2019-03-29T17:06:11.179Z,26.33
2019-03-29T17:09:00.036Z,26.90
2019-03-29T17:11:49.510Z,26.10
2019-03-29T17:14:39.067Z,26.17
2019-03-29T17:17:28.353Z,27.73
2019-03-29T17:20:17.585Z,28.98
2019-03-29T17:23:07.196Z,25.85
2019-03-29T17:25:56.572Z,27.27
2019-03-29T17:28:45.940Z,25.75
2019-03-29T17:31:35.518Z,25.68
2019-03-29T17:34:24.430Z,26.80
2019-03-29T17:37:13.347Z,27.50
2019-03-29T17:40:02.596Z,26.70
2019-03-29T17:42:52.001Z,26.57
2019-03-29T17:45:40.490Z,25.65
2019-03-29T17:48:29.710Z,28.20
2019-03-29T17:51:18.889Z,26.87
2019-03-29T17:54:08.180Z,27.82
2019-03-29T17:56:57.576Z,27.90
2019-03-29T17:59:46.688Z,26.97
2019-03-29T18:02:36.056Z,25.95
2019-03-29T18:05:25.019Z,26.75
2019-03-29T18:08:14.193Z,26.90
2019-03-29T18:11:03.435Z,26.42
2019-03-29T18:13:52.521Z,25.32
2019-03-29T18:16:41.482Z,29.95
2019-03-29T18:19:30.035Z,27.98
2019-03-29T18:22:19.403Z,28.20
2019-03-29T18:25:09.082Z,28.05
2019-03-29T18:27:58.357Z,27.42
2019-03-29T18:30:47.491Z,28.67
2019-03-29T18:33:36.489Z,28.65
2019-03-29T18:36:25.606Z,25.45
2019-03-29T18:39:15.233Z,26.30
2019-03-29T18:42:04.704Z,25.77
2019-03-29T18:44:53.837Z,26.90
2019-03-29T18:47:43.236Z,27.62
2019-03-29T18:50:32.283Z,26.85
2019-03-29T18:53:21.978Z,33.10
2019-03-29T18:56:11.440Z,28.25
2019-03-29T18:59:00.313Z,29.45
2019-03-29T19:01:49.472Z,30.20
2019-03-29T19:04:39.003Z,31.00
2019-03-29T19:07:31.576Z,29.85
2019-03-29T19:10:20.614Z,29.63
2019-03-29T19:13:10.149Z,30.30
2019-03-29T19:15:59.665Z,32.67
2019-03-29T19:18:49.192Z,31.93
2019-03-29T19:21:38.175Z,31.15
2019-03-29T19:24:27.319Z,32.83
2019-03-29T19:27:16.904Z,30.17
2019-03-29T19:30:10.196Z,30.23
2019-03-29T19:32:59.852Z,30.25
2019-03-29T19:35:49.126Z,32.53
2019-03-29T19:38:38.502Z,31.93
2019-03-29T19:41:27.457Z,34.03
2019-03-29T19:44:16.718Z,37.15
2019-03-29T19:47:13.340Z,30.40
2019-03-29T19:49:57.271Z,36.45
2019-03-29T19:52:46.266Z,38.00
2019-03-29T19:55:35.335Z,36.40
2019-03-29T19:58:24.350Z,34.23
2019-03-29T20:01:13.179Z,36.20
2019-03-29T20:04:02.098Z,34.98
2019-03-29T20:06:51.381Z,38.48
2019-03-29T20:09:42.089Z,34.95
2019-03-29T20:12:30.731Z,36.65
2019-03-29T20:15:20.112Z,39.83
2019-03-29T20:18:09.686Z,37.98
2019-03-29T20:20:59.136Z,46.25
2019-03-29T20:23:48.338Z,43.68
2019-03-29T20:26:36.845Z,60.65
2019-03-29T20:29:26.354Z,40.83
2019-03-29T20:32:15.520Z,48.87
2019-03-29T20:35:07.043Z,47.58
2019-03-29T20:37:56.102Z,38.23
2019-03-29T20:40:45.680Z,41.68
2019-03-29T20:43:35.571Z,51.95
2019-03-29T20:46:24.621Z,38.45
2019-03-29T20:49:14.204Z,37.53
2019-03-29T20:52:03.107Z,42.93
2019-03-29T20:54:51.825Z,45.58
2019-03-29T20:57:41.159Z,50.67
2019-03-29T21:00:30.496Z,40.58
2019-03-29T21:03:19.842Z,40.23
2019-03-29T21:06:08.885Z,40.05
2019-03-29T21:08:58.168Z,43.00
2019-03-29T21:11:47.087Z,41.25
2019-03-29T21:14:36.405Z,48.78
2019-03-29T21:17:25.408Z,44.70
2019-03-29T21:20:15.560Z,45.50
2019-03-29T21:23:04.416Z,42.10
2019-03-29T21:25:53.693Z,48.87
2019-03-29T21:28:43.261Z,41.75
2019-03-29T21:31:32.562Z,49.45
2019-03-29T21:34:21.911Z,48.35
2019-03-29T21:37:10.320Z,62.70
2019-03-29T21:39:59.628Z,42.98
2019-03-29T21:42:48.990Z,41.33
2019-03-29T21:45:37.857Z,42.58
2019-03-29T21:48:29.201Z,44.03
2019-03-29T21:51:18.363Z,43.52
2019-03-29T21:54:07.610Z,42.45
2019-03-29T21:56:56.800Z,44.40
2019-03-29T21:59:46.130Z,44.93
2019-03-29T22:02:35.147Z,43.45
2019-03-29T22:05:24.379Z,48.17
2019-03-29T22:08:13.747Z,42.13
2019-03-29T22:11:03.022Z,42.05
2019-03-29T22:13:52.191Z,43.98
2019-03-29T22:16:40.780Z,57.40
2019-03-29T22:19:30.318Z,44.25
2019-03-29T22:22:19.354Z,56.10
2019-03-29T22:25:09.988Z,44.60
2019-03-29T22:27:59.306Z,42.03
2019-03-29T22:30:48.828Z,44.85
2019-03-29T22:33:37.990Z,42.93
2019-03-29T22:36:27.686Z,50.40
2019-03-29T22:39:16.427Z,50.30
2019-03-29T22:42:05.885Z,41.80
2019-03-29T22:44:55.183Z,49.20
2019-03-29T22:47:44.218Z,43.63
2019-03-29T22:50:33.409Z,51.77
2019-03-29T22:53:22.578Z,53.20
2019-03-29T22:56:12.154Z,47.08
2019-03-29T22:59:01.112Z,57.13
2019-03-29T23:01:50.953Z,46.28
2019-03-29T23:04:40.081Z,49.13
2019-03-29T23:07:29.412Z,48.63
2019-03-29T23:10:18.603Z,51.58
2019-03-29T23:13:08.063Z,53.13
2019-03-29T23:15:57.560Z,56.05
2019-03-29T23:18:46.259Z,77.10
2019-03-29T23:21:35.581Z,73.97
2019-03-29T23:24:24.960Z,54.40
2019-03-29T23:27:14.396Z,49.55
2019-03-29T23:30:04.125Z,48.15
2019-03-29T23:32:53.911Z,65.47
2019-03-29T23:35:42.769Z,47.67
2019-03-29T23:38:32.016Z,50.43
2019-03-29T23:41:21.111Z,66.77
2019-03-29T23:44:10.389Z,52.23
2019-03-29T23:46:59.493Z,67.12
2019-03-29T23:49:49.301Z,51.75
2019-03-29T23:52:38.567Z,51.70
2019-03-29T23:55:27.407Z,74.65
2019-03-29T23:58:16.971Z,75.80
